Time;durP1;ratioP1;P1;durP2;ratioP2;P2;SDS_P1;SDS_P2;PMS_P1;PMS_P2;Temp;Humidity;BMP_temperature;BMP_pressure;BME280_temperature;BME280_humidity;BME280_pressure;Samples;Min_cycle;Max_cycle;Signal;HPM_P1;HPM_P2
2023/07/15 00:01:24;;;;;;;0.75;0.22;;;;;;;14.77;100.00;98364.81;5014400;28;20515;-43
2023/07/15 00:03:52;;;;;;;0.30;0.30;;;;;;;14.76;100.00;98370.78;5014439;28;20044;-42
2023/07/15 00:06:22;;;;;;;0.43;0.20;;;;;;;14.73;100.00;98361.31;5014053;28;20046;-44
2023/07/15 00:08:50;;;;;;;0.22;0.10;;;;;;;14.73;100.00;98364.09;5014274;28;20045;-44
2023/07/15 00:11:31;;;;;;;0.25;0.10;;;;;;;14.71;100.00;98362.94;5012729;28;20077;-43
2023/07/15 00:13:59;;;;;;;2.83;0.20;;;;;;;14.68;100.00;98370.16;5025207;28;20099;-46
2023/07/15 00:16:29;;;;;;;0.57;0.10;;;;;;;14.68;100.00;98358.25;5014389;28;20048;-44
2023/07/15 00:18:56;;;;;;;1.42;0.20;;;;;;;14.67;100.00;98363.00;5014314;28;20045;-44
2023/07/15 00:21:25;;;;;;;1.00;0.10;;;;;;;14.66;100.00;98369.81;5012967;28;20053;-43
2023/07/15 00:23:57;;;;;;;0.52;0.10;;;;;;;14.64;100.00;98369.44;5012730;28;20049;-44
2023/07/15 00:26:25;;;;;;;;;;;;;;;14.62;100.00;98377.44;5014179;28;20410;-44
2023/07/15 00:28:52;;;;;;;0.40;0.30;;;;;;;14.66;100.00;98372.59;5014220;28;19967;-42
2023/07/15 00:31:20;;;;;;;1.17;0.20;;;;;;;14.68;100.00;98372.94;5012798;28;20042;-43
2023/07/15 00:33:48;;;;;;;0.32;0.32;;;;;;;14.71;100.00;98374.09;5013579;28;20054;-43
2023/07/15 00:36:16;;;;;;;1.05;0.52;;;;;;;14.72;100.00;98382.00;5013734;28;20042;-42
2023/07/15 00:38:43;;;;;;;2.50;0.20;;;;;;;14.71;100.00;98369.31;4996382;28;20041;-43
2023/07/15 00:41:22;;;;;;;0.20;0.20;;;;;;;14.69;100.00;98366.19;5013457;28;20056;-44
2023/07/15 00:43:56;;;;;;;0.30;0.20;;;;;;;14.68;100.00;98363.81;5013025;28;20380;-43
2023/07/15 00:46:44;;;;;;;5.78;0.73;;;;;;;14.66;100.00;98361.47;5013572;28;20098;-43
2023/07/15 00:49:16;;;;;;;1.25;0.30;;;;;;;14.66;100.00;98372.59;5013589;28;20089;-44
2023/07/15 00:52:09;;;;;;;0.20;0.20;;;;;;;14.62;100.00;98355.16;5012239;28;20042;-43
2023/07/15 00:54:40;;;;;;;2.40;0.20;;;;;;;14.62;100.00;98355.97;5006899;28;20111;-44
2023/07/15 00:57:09;;;;;;;0.40;0.20;;;;;;;14.60;100.00;98352.03;5013370;28;20097;-44
2023/07/15 00:59:38;;;;;;;0.43;0.30;;;;;;;14.58;100.00;98348.91;5013310;28;20038;-44
2023/07/15 01:02:07;;;;;;;0.32;0.20;;;;;;;14.58;100.00;98343.34;5011314;28;20053;-43
2023/07/15 01:04:35;;;;;;;0.20;0.13;;;;;;;14.57;100.00;98348.13;5012596;28;20041;-43
2023/07/15 01:07:04;;;;;;;1.50;0.25;;;;;;;14.57;100.00;98352.91;5013343;28;20037;-43
2023/07/15 01:09:32;;;;;;;3.75;1.58;;;;;;;14.57;100.00;98352.91;5012350;28;20057;-45
2023/07/15 01:11:59;;;;;;;0.20;0.20;;;;;;;14.57;100.00;98348.13;5012428;28;20048;-45
2023/07/15 01:14:28;;;;;;;0.55;0.10;;;;;;;14.56;100.00;98345.78;5021695;28;20063;-44
2023/07/15 01:16:55;;;;;;;0.35;0.20;;;;;;;14.55;100.00;98352.53;5012917;28;20049;-46
2023/07/15 01:19:22;;;;;;;0.77;0.30;;;;;;;14.55;100.00;98355.31;5012817;28;20049;-43
2023/07/15 01:21:50;;;;;;;1.48;0.38;;;;;;;14.55;100.00;98344.97;5012416;28;20689;-43
2023/07/15 01:24:19;;;;;;;0.77;0.45;;;;;;;14.56;100.00;98360.47;5012832;28;20107;-43
2023/07/15 01:26:47;;;;;;;2.10;0.22;;;;;;;14.58;100.00;98354.47;5012792;28;20056;-44
2023/07/15 01:29:14;;;;;;;0.88;0.20;;;;;;;14.62;100.00;98355.16;5012816;28;20045;-44
2023/07/15 01:31:43;;;;;;;1.75;0.22;;;;;;;14.60;100.00;98352.81;5011802;28;20140;-49
2023/07/15 01:34:12;;;;;;;1.08;0.20;;;;;;;14.59;100.00;98348.47;4998842;28;20530;-43
2023/07/15 01:36:38;;;;;;;1.17;0.30;;;;;;;14.60;100.00;98358.41;4995029;28;20053;-43
2023/07/15 01:39:09;;;;;;;1.83;0.20;;;;;;;14.60;100.00;98352.03;5012484;28;20046;-43
2023/07/15 01:41:36;;;;;;;0.60;0.22;;;;;;;14.59;100.00;98348.47;5011770;28;20116;-43
2023/07/15 01:44:04;;;;;;;0.85;0.20;;;;;;;14.59;100.00;98350.47;5012649;28;20402;-44
2023/07/15 01:46:33;;;;;;;0.40;0.20;;;;;;;14.59;100.00;98350.47;5012196;28;20046;-43
2023/07/15 01:49:02;;;;;;;0.50;0.20;;;;;;;14.58;100.00;98344.13;5012230;28;20049;-45
2023/07/15 01:51:30;;;;;;;2.63;0.20;;;;;;;14.57;100.00;98342.53;5011107;28;20132;-43
2023/07/15 01:53:58;;;;;;;3.22;0.20;;;;;;;14.56;100.00;98337.41;5008849;28;20045;-44
2023/07/15 01:56:26;;;;;;;0.20;0.20;;;;;;;14.57;100.00;98325.84;5012371;28;20056;-44
2023/07/15 01:58:52;;;;;;;2.13;0.32;;;;;;;14.59;100.00;98317.03;5012144;28;20054;-43
2023/07/15 02:01:19;;;;;;;0.73;0.20;;;;;;;14.59;100.00;98317.84;5011697;28;20420;-43
2023/07/15 02:03:46;;;;;;;2.55;0.30;;;;;;;14.59;100.00;98322.63;5011559;28;20053;-44
2023/07/15 02:06:14;;;;;;;0.25;0.22;;;;;;;14.57;100.00;98306.34;5012072;28;20042;-44
2023/07/15 02:08:41;;;;;;;1.17;0.20;;;;;;;14.54;100.00;98314.75;5012064;28;20132;-43
2023/07/15 02:11:08;;;;;;;0.40;0.20;;;;;;;14.49;100.00;98306.91;5011995;28;20038;-43
2023/07/15 02:13:35;;;;;;;1.70;0.20;;;;;;;14.45;100.00;98301.44;5017614;28;20045;-45
2023/07/15 02:16:02;;;;;;;1.40;0.40;;;;;;;14.41;100.00;98311.84;5014473;28;20064;-44
2023/07/15 02:18:29;;;;;;;1.13;0.45;;;;;;;14.40;100.00;98309.53;5011639;28;20104;-43
2023/07/15 02:20:56;;;;;;;0.38;0.30;;;;;;;14.37;100.00;98307.59;5010938;28;20048;-45
2023/07/15 02:23:22;;;;;;;0.30;0.25;;;;;;;14.35;100.00;98315.59;5011720;28;20079;-43
2023/07/15 02:25:49;;;;;;;1.23;0.60;;;;;;;14.34;100.00;98305.66;5011588;28;20041;-43
2023/07/15 02:28:16;;;;;;;0.95;0.68;;;;;;;14.37;100.00;98304.81;5011816;28;20052;-43
2023/07/15 02:30:43;;;;;;;0.20;0.20;;;;;;;14.39;100.00;98296.81;5011169;28;20042;-43
2023/07/15 02:33:10;;;;;;;1.63;0.40;;;;;;;14.40;100.00;98298.38;4994258;28;20128;-43
2023/07/15 02:35:40;;;;;;;1.75;0.75;;;;;;;14.40;100.00;98298.38;5011574;28;20038;-45
2023/07/15 02:38:07;;;;;;;4.55;1.08;;;;;;;14.42;100.00;98295.94;5011439;28;20056;-43
2023/07/15 02:40:33;;;;;;;0.50;0.35;;;;;;;14.43;100.00;98294.72;4991094;28;20038;-44
2023/07/15 02:43:00;;;;;;;0.68;0.40;;;;;;;14.43;100.00;98297.50;5011762;28;20075;-43
2023/07/15 02:45:27;;;;;;;2.53;0.50;;;;;;;14.43;100.00;98297.50;5011128;28;20495;-44
2023/07/15 02:47:54;;;;;;;0.47;0.35;;;;;;;14.40;100.00;98290.03;5011511;28;20050;-44
2023/07/15 02:50:21;;;;;;;0.90;0.38;;;;;;;14.37;100.00;98288.91;5010137;28;20087;-46
2023/07/15 02:52:48;;;;;;;0.40;0.40;;;;;;;14.34;100.00;98286.97;5011533;28;20058;-47
2023/07/15 02:55:15;;;;;;;1.40;0.50;;;;;;;14.33;100.00;98287.38;5011512;28;20137;-44
2023/07/15 02:57:42;;;;;;;0.60;0.50;;;;;;;14.30;100.00;98283.44;5011094;28;20535;-46
2023/07/15 03:00:15;;;;;;;2.50;0.38;;;;;;;14.28;100.00;98276.72;4992478;28;20046;-43
2023/07/15 03:02:39;;;;;;;2.10;0.40;;;;;;;14.24;100.00;98285.16;5027074;22;20411;-42
2023/07/15 03:05:06;;;;;;;0.40;0.40;;;;;;;14.23;100.00;98283.59;4991768;28;20403;-42
2023/07/15 03:07:34;;;;;;;0.63;0.40;;;;;;;14.24;100.00;98270.47;4991765;28;20062;-44
2023/07/15 03:10:02;;;;;;;1.42;0.57;;;;;;;14.22;100.00;98264.50;4990983;28;20081;-42
2023/07/15 03:12:29;;;;;;;1.13;0.73;;;;;;;14.19;100.00;98271.72;4991312;28;20054;-42
2023/07/15 03:14:56;;;;;;;1.02;0.50;;;;;;;14.18;100.00;98269.38;4983279;28;20045;-42
2023/07/15 03:17:23;;;;;;;0.65;0.55;;;;;;;14.15;100.00;98264.69;4991621;28;20496;-43
2023/07/15 03:19:50;;;;;;;1.02;0.60;;;;;;;14.15;100.00;98267.47;4989245;28;20074;-44
2023/07/15 03:22:17;;;;;;;3.53;0.40;;;;;;;14.14;100.00;98263.13;4991271;28;20574;-43
2023/07/15 03:24:45;;;;;;;0.35;0.25;;;;;;;14.17;100.00;98259.47;4991676;28;20050;-44
2023/07/15 03:27:11;;;;;;;1.70;0.47;;;;;;;14.20;100.00;98261.38;4991469;28;20046;-43
2023/07/15 03:29:38;;;;;;;0.75;0.40;;;;;;;14.21;100.00;98257.41;4990535;28;20395;-43
2023/07/15 03:32:05;;;;;;;2.38;0.40;;;;;;;14.20;100.00;98259.41;4989546;28;20046;-42
2023/07/15 03:34:32;;;;;;;0.40;0.30;;;;;;;14.18;100.00;98253.47;4994199;28;20046;-43
2023/07/15 03:36:59;;;;;;;1.92;0.47;;;;;;;14.16;100.00;98249.56;4995138;28;20495;-42
2023/07/15 03:39:25;;;;;;;1.98;0.50;;;;;;;14.13;100.00;98251.19;4992080;28;20050;-44
2023/07/15 03:41:52;;;;;;;1.73;0.50;;;;;;;14.11;100.00;98252.84;4995266;28;20038;-42
2023/07/15 03:44:19;;;;;;;1.42;0.32;;;;;;;14.12;100.00;98251.63;4995017;28;20109;-43
2023/07/15 03:46:54;;;;;;;0.93;0.30;;;;;;;14.10;100.00;98252.06;4994988;28;20567;-42
2023/07/15 03:49:21;;;;;;;2.05;0.43;;;;;;;14.09;100.00;98252.47;4992672;28;20134;-43
2023/07/15 03:51:48;;;;;;;0.30;0.30;;;;;;;14.08;100.00;98242.56;4995086;28;20046;-43
2023/07/15 03:54:15;;;;;;;0.95;0.45;;;;;;;14.07;100.00;98249.34;4995103;28;20038;-43
2023/07/15 03:56:42;;;;;;;0.40;0.30;;;;;;;14.06;100.00;98250.56;4994837;28;20046;-44
2023/07/15 03:59:09;;;;;;;0.47;0.40;;;;;;;14.06;100.00;98251.34;4994238;28;20042;-42
2023/07/15 04:01:36;;;;;;;1.38;0.40;;;;;;;14.05;100.00;98252.56;4986294;28;20504;-42
2023/07/15 04:04:08;;;;;;;0.40;0.35;;;;;;;14.06;100.00;98253.34;4974581;28;20045;-43
2023/07/15 04:06:35;;;;;;;4.25;0.43;;;;;;;14.08;100.00;98248.13;4975303;28;20097;-43
2023/07/15 04:09:04;;;;;;;4.55;0.50;;;;;;;14.10;100.00;98256.84;4974568;28;20114;-42
2023/07/15 04:11:32;;;;;;;2.55;0.30;;;;;;;14.11;100.00;98255.63;4962799;28;20043;-43
2023/07/15 04:13:59;;;;;;;0.28;0.28;;;;;;;14.13;100.00;98254.00;4974789;28;20471;-43
2023/07/15 04:16:26;;;;;;;1.38;0.50;;;;;;;14.14;100.00;98252.00;4957907;28;20050;-43
2023/07/15 04:18:53;;;;;;;0.77;0.45;;;;;;;14.13;100.00;98239.28;4956361;28;20043;-43
2023/07/15 04:21:19;;;;;;;1.60;0.50;;;;;;;14.11;100.00;98236.16;4974485;28;20066;-43
2023/07/15 04:23:46;;;;;;;2.55;0.30;;;;;;;14.11;100.00;98245.25;4974840;28;20047;-43
2023/07/15 04:26:20;;;;;;;0.75;0.50;;;;;;;14.10;100.00;98245.72;4974861;28;20149;-43
2023/07/15 04:28:47;;;;;;;1.55;0.30;;;;;;;14.08;100.00;98242.56;4973591;28;20051;-44
2023/07/15 04:31:13;;;;;;;2.20;0.60;;;;;;;14.07;100.00;98247.34;4975152;28;20105;-43
2023/07/15 04:33:40;;;;;;;0.65;0.52;;;;;;;14.07;100.00;98246.56;4974729;28;20207;-43
2023/07/15 04:36:07;;;;;;;0.45;0.40;;;;;;;14.06;100.00;98239.44;4974361;28;20412;-43
2023/07/15 04:38:34;;;;;;;0.60;0.60;;;;;;;14.07;100.00;98247.34;4954587;28;20089;-42
2023/07/15 04:41:00;;;;;;;0.63;0.30;;;;;;;14.07;100.00;98246.56;4974053;28;20433;-43
2023/07/15 04:43:27;;;;;;;1.10;0.50;;;;;;;14.08;100.00;98239.78;4974473;28;20039;-43
2023/07/15 04:45:54;;;;;;;0.80;0.30;;;;;;;14.11;100.00;98236.16;4974441;28;20082;-43
2023/07/15 04:48:23;;;;;;;1.90;0.32;;;;;;;14.13;100.00;98250.41;4974396;28;20634;-43
2023/07/15 04:50:50;;;;;;;2.45;0.38;;;;;;;14.13;100.00;98240.06;4972537;28;20065;-43
2023/07/15 04:53:16;;;;;;;1.15;0.35;;;;;;;14.15;100.00;98242.41;4974316;28;20089;-43
2023/07/15 04:55:45;;;;;;;0.20;0.20;;;;;;;14.14;100.00;98238.09;4973687;28;20066;-42
2023/07/15 04:58:15;;;;;;;0.38;0.38;;;;;;;14.13;100.00;98239.28;4974304;28;20059;-43
2023/07/15 05:00:42;;;;;;;2.47;0.20;;;;;;;14.11;100.00;98248.03;4955159;28;20047;-46
2023/07/15 05:03:09;;;;;;;1.15;0.47;;;;;;;14.11;100.00;98241.72;4974134;28;20058;-43
2023/07/15 05:05:40;;;;;;;0.63;0.38;;;;;;;14.14;100.00;98247.19;4957064;28;20050;-43
2023/07/15 05:08:15;;;;;;;0.63;0.20;;;;;;;14.14;100.00;98243.66;4974151;28;20054;-43
2023/07/15 05:10:43;;;;;;;0.43;0.30;;;;;;;14.14;100.00;98235.31;4973411;28;20049;-43
2023/07/15 05:13:11;;;;;;;1.88;0.60;;;;;;;14.16;100.00;98244.00;4947873;28;20046;-42
2023/07/15 05:15:38;;;;;;;0.90;0.35;;;;;;;14.19;100.00;98235.56;4973888;28;20070;-42
2023/07/15 05:18:06;;;;;;;0.65;0.30;;;;;;;14.25;100.00;98233.84;4973974;28;20534;-43
2023/07/15 05:20:34;;;;;;;1.30;0.38;;;;;;;14.28;100.00;98229.41;4973030;28;20448;-43
2023/07/15 05:23:04;;;;;;;1.38;0.28;;;;;;;14.30;100.00;98232.53;4974156;28;20047;-42
2023/07/15 05:25:32;;;;;;;1.73;0.47;;;;;;;14.29;100.00;98233.78;4973943;28;20078;-43
2023/07/15 05:28:00;;;;;;;1.63;0.43;;;;;;;14.28;100.00;98218.28;4973837;28;20113;-44
2023/07/15 05:30:27;;;;;;;1.70;0.50;;;;;;;14.30;100.00;98210.28;4972050;28;20073;-44
2023/07/15 05:32:53;;;;;;;1.05;0.40;;;;;;;14.29;100.00;98203.94;4973618;28;20045;-42
2023/07/15 05:35:20;;;;;;;0.28;0.15;;;;;;;14.28;100.00;98215.50;4973563;28;20054;-42
2023/07/15 05:37:47;;;;;;;0.75;0.73;;;;;;;14.29;100.00;98203.16;4973755;28;20054;-43
2023/07/15 05:40:14;;;;;;;0.30;0.30;;;;;;;14.35;100.00;98212.59;4969177;28;20058;-43
2023/07/15 05:42:45;;;;;;;0.38;0.22;;;;;;;14.38;100.00;98206.16;4973375;28;20105;-43
2023/07/15 05:45:12;;;;;;;0.30;0.20;;;;;;;14.38;100.00;98206.94;4973385;28;20047;-43
2023/07/15 05:47:40;;;;;;;1.17;0.20;;;;;;;14.40;100.00;98198.16;4955198;28;20409;-43
2023/07/15 05:50:08;;;;;;;0.30;0.20;;;;;;;14.44;100.00;98193.28;4972508;28;20137;-43
2023/07/15 05:52:35;;;;;;;0.52;0.30;;;;;;;14.48;100.00;98196.78;4971980;28;20411;-43
2023/07/15 05:55:04;;;;;;;0.95;0.20;;;;;;;14.53;100.00;98193.50;4972743;28;20493;-43
2023/07/15 05:57:31;;;;;;;0.70;0.30;;;;;;;14.62;100.00;98193.66;4972579;28;20043;-43
2023/07/15 05:59:58;;;;;;;0.30;0.30;;;;;;;14.71;100.00;98198.63;4972116;28;20043;-43
2023/07/15 06:02:26;;;;;;;3.22;0.35;;;;;;;14.76;99.48;98204.47;4973013;28;20513;-43
2023/07/15 06:04:53;;;;;;;0.47;0.35;;;;;;;14.81;99.40;98192.81;4971920;28;20050;-43
2023/07/15 06:07:20;;;;;;;1.88;0.32;;;;;;;14.83;98.82;98193.16;4971524;28;20039;-48
2023/07/15 06:09:54;;;;;;;0.65;0.30;;;;;;;14.87;98.49;98191.06;4973050;28;20488;-45
2023/07/15 06:12:21;;;;;;;2.50;0.30;;;;;;;14.97;98.59;98189.22;4972639;28;20047;-43
2023/07/15 06:14:48;;;;;;;0.10;0.10;;;;;;;15.02;98.15;98183.91;4972157;28;20046;-43
2023/07/15 06:17:16;;;;;;;0.70;0.20;;;;;;;15.05;97.63;98191.41;4971651;28;20146;-43
2023/07/15 06:19:42;;;;;;;0.93;0.38;;;;;;;15.07;97.52;98188.97;4972202;28;20034;-43
2023/07/15 06:22:09;;;;;;;0.90;0.43;;;;;;;15.07;97.22;98186.16;4968009;28;20117;-43
2023/07/15 06:24:36;;;;;;;0.43;0.20;;;;;;;15.05;96.80;98177.47;4972759;28;20488;-43
2023/07/15 06:27:03;;;;;;;2.22;0.50;;;;;;;15.04;96.54;98170.31;4971658;28;20034;-44
2023/07/15 06:29:30;;;;;;;1.00;0.40;;;;;;;15.07;96.40;98175.03;4964823;28;20489;-44
2023/07/15 06:31:57;;;;;;;1.42;0.38;;;;;;;15.17;96.41;98178.75;4972794;28;20046;-43
2023/07/15 06:34:23;;;;;;;1.77;0.30;;;;;;;15.24;96.35;98170.22;4972789;28;20107;-43
2023/07/15 06:36:50;;;;;;;1.90;0.40;;;;;;;15.28;95.78;98168.09;4971643;28;20046;-44
2023/07/15 06:39:21;;;;;;;1.30;0.30;;;;;;;15.31;95.43;98177.59;4972199;28;20141;-43
2023/07/15 06:41:50;;;;;;;0.30;0.20;;;;;;;15.31;94.78;98170.00;4972458;28;20058;-43
2023/07/15 06:44:17;;;;;;;1.88;0.20;;;;;;;15.32;95.03;98170.81;4972830;28;20060;-43
2023/07/15 06:46:44;;;;;;;0.32;0.20;;;;;;;15.37;94.96;98181.41;4970927;28;20039;-43
2023/07/15 06:49:11;;;;;;;1.30;0.30;;;;;;;15.38;94.40;98167.03;4971671;28;20415;-44
2023/07/15 06:51:37;;;;;;;1.45;0.45;;;;;;;15.43;94.25;98160.94;4972388;28;20043;-43
2023/07/15 06:54:04;;;;;;;0.50;0.50;;;;;;;15.53;94.22;98161.88;4971854;28;20121;-45
2023/07/15 06:56:31;;;;;;;0.22;0.20;;;;;;;15.64;94.18;98173.53;4971309;28;20053;-43
2023/07/15 06:58:58;;;;;;;1.02;0.20;;;;;;;15.78;94.00;98159.16;4972358;28;20057;-43
2023/07/15 07:01:25;;;;;;;0.55;0.30;;;;;;;15.88;93.38;98162.88;4972044;28;20059;-44
2023/07/15 07:03:53;;;;;;;1.98;0.30;;;;;;;15.93;92.99;98163.13;4972440;28;20087;-43
2023/07/15 07:06:20;;;;;;;0.20;0.17;;;;;;;15.98;92.57;98154.19;4971466;28;20519;-43
2023/07/15 07:08:48;;;;;;;1.75;0.38;;;;;;;16.03;92.26;98152.88;4974843;28;20089;-44
2023/07/15 07:11:14;;;;;;;0.68;0.47;;;;;;;16.01;91.66;98153.31;4975314;28;20047;-43
2023/07/15 07:13:42;;;;;;;0.20;0.20;;;;;;;15.97;91.76;98161.00;4976017;28;20047;-44
2023/07/15 07:16:11;;;;;;;0.55;0.15;;;;;;;15.99;91.79;98160.56;4976407;28;20055;-45
2023/07/15 07:18:39;;;;;;;0.25;0.10;;;;;;;15.97;91.70;98158.22;4975959;28;20046;-45
2023/07/15 07:21:06;;;;;;;2.63;0.30;;;;;;;15.90;91.43;98164.00;4976047;28;20061;-44
2023/07/15 07:23:33;;;;;;;0.32;0.20;;;;;;;15.87;91.19;98155.72;4976051;28;20047;-43
2023/07/15 07:26:00;;;;;;;1.52;0.17;;;;;;;15.80;91.23;98154.72;4973153;28;20436;-44
2023/07/15 07:28:44;;;;;;;0.63;0.20;;;;;;;15.67;91.17;98156.69;4957710;28;20091;-43
2023/07/15 07:31:13;;;;;;;0.40;0.25;;;;;;;15.62;91.55;98153.69;4965452;28;20404;-43
2023/07/15 07:33:41;;;;;;;0.20;0.20;;;;;;;15.54;91.50;98147.50;4974671;28;20412;-43
2023/07/15 07:36:09;;;;;;;0.65;0.20;;;;;;;15.51;91.71;98150.41;4970850;28;20047;-45
2023/07/15 07:38:37;;;;;;;0.22;0.13;;;;;;;15.41;91.74;98137.50;4975694;28;20051;-43
2023/07/15 07:41:06;;;;;;;0.55;0.20;;;;;;;15.33;91.82;98156.41;4975918;28;20504;-42
2023/07/15 07:43:37;;;;;;;1.27;0.20;;;;;;;15.18;91.80;98141.31;4975501;28;20042;-42
2023/07/15 07:46:06;;;;;;;1.00;0.20;;;;;;;15.08;92.07;98137.59;4973463;28;20441;-42
2023/07/15 07:48:33;;;;;;;0.65;0.20;;;;;;;14.98;92.46;98135.88;4975442;28;20047;-42
2023/07/15 07:51:01;;;;;;;0.60;0.10;;;;;;;14.89;92.74;98134.91;4975548;28;20046;-42
2023/07/15 07:53:28;;;;;;;0.40;0.20;;;;;;;14.74;92.81;98126.16;4975770;28;20046;-42
2023/07/15 07:55:56;;;;;;;1.00;0.20;;;;;;;14.68;92.98;98133.44;4973975;28;20070;-45
2023/07/15 07:58:23;;;;;;;0.45;0.20;;;;;;;14.59;93.34;98127.69;4973131;28;20057;-44
2023/07/15 08:00:50;;;;;;;0.70;0.20;;;;;;;14.50;93.44;98130.31;4975245;28;20051;-42
2023/07/15 08:03:16;;;;;;;2.50;0.80;;;;;;;14.40;93.88;98125.78;4974686;28;20050;-47
2023/07/15 08:05:45;;;;;;;1.48;0.40;;;;;;;14.32;94.21;98125.16;4975374;28;20042;-42
2023/07/15 08:08:13;;;;;;;0.40;0.40;;;;;;;14.25;94.65;98116.16;4974358;28;20051;-43
2023/07/15 08:10:40;;;;;;;0.22;0.13;;;;;;;14.22;95.04;98122.59;4975138;28;20051;-42
2023/07/15 08:13:07;;;;;;;0.68;0.20;;;;;;;14.18;95.27;98117.13;4974960;28;20489;-42
2023/07/15 08:15:36;;;;;;;0.95;0.45;;;;;;;14.15;95.42;98114.41;4972821;28;20143;-43
2023/07/15 08:18:04;;;;;;;1.35;0.40;;;;;;;14.10;96.00;98112.16;4975128;28;20094;-44
2023/07/15 08:20:31;;;;;;;0.52;0.20;;;;;;;14.08;96.13;98115.38;4955675;28;20113;-42
2023/07/15 08:22:59;;;;;;;0.77;0.20;;;;;;;14.08;96.46;98109.03;4974997;28;20047;-43
2023/07/15 08:25:26;;;;;;;0.80;0.30;;;;;;;13.99;96.89;98107.63;4974201;28;20050;-42
2023/07/15 08:27:54;;;;;;;0.35;0.15;;;;;;;13.94;96.76;98119.25;4975000;28;20046;-43
2023/07/15 08:30:21;;;;;;;0.35;0.10;;;;;;;13.88;96.85;98107.06;4957611;28;20058;-42
2023/07/15 08:32:48;;;;;;;0.40;0.35;;;;;;;13.88;97.05;98111.84;4974667;28;20046;-43
2023/07/15 08:35:15;;;;;;;0.20;0.10;;;;;;;13.87;97.27;98099.94;4973138;28;20051;-43
2023/07/15 08:37:43;;;;;;;3.17;0.30;;;;;;;13.85;97.51;98096.81;4968096;28;20066;-41
2023/07/15 08:40:13;;;;;;;0.52;0.28;;;;;;;13.82;97.75;98089.31;4974464;28;20093;-41
2023/07/15 08:42:40;;;;;;;1.48;0.32;;;;;;;13.78;97.81;98091.41;4974804;28;20074;-41
2023/07/15 08:45:08;;;;;;;0.25;0.10;;;;;;;13.78;97.99;98087.84;4972095;28;20043;-42
2023/07/15 08:47:36;;;;;;;0.35;0.10;;;;;;;13.76;98.53;98088.28;4974792;28;20055;-42
2023/07/15 08:50:08;;;;;;;0.20;0.20;;;;;;;13.77;98.77;98075.13;4957645;28;20043;-41
2023/07/15 08:52:35;;;;;;;0.10;0.10;;;;;;;13.76;99.06;98082.72;4974384;28;20043;-42
2023/07/15 08:55:02;;;;;;;0.10;0.10;;;;;;;13.76;99.28;98088.28;4972496;28;20077;-43
2023/07/15 08:57:32;;;;;;;0.30;0.30;;;;;;;13.76;99.49;98087.50;4957757;28;20047;-42
2023/07/15 08:59:59;;;;;;;0.17;0.10;;;;;;;13.76;99.57;98082.72;4974199;28;20086;-42
2023/07/15 09:02:26;;;;;;;0.10;0.10;;;;;;;13.77;99.73;98089.03;4974070;28;20058;-44
2023/07/15 09:04:53;;;;;;;0.50;0.10;;;;;;;13.77;100.00;98084.28;4955283;28;20057;-42
2023/07/15 09:07:27;;;;;;;0.10;0.10;;;;;;;13.79;100.00;98092.97;4974138;28;20050;-42
2023/07/15 09:09:53;;;;;;;2.47;0.05;;;;;;;13.80;100.00;98077.84;4956212;28;20035;-41
2023/07/15 09:12:26;;;;;;;1.08;0.10;;;;;;;13.86;100.00;98076.13;4967924;28;20061;-43
2023/07/15 09:14:54;;;;;;;0.15;0.13;;;;;;;13.91;100.00;98085.94;4957197;28;20051;-41
2023/07/15 09:17:23;;;;;;;0.80;0.10;;;;;;;13.94;100.00;98073.97;4950179;28;20129;-41
2023/07/15 09:19:51;;;;;;;0.30;0.03;;;;;;;13.95;100.00;98079.09;4961652;28;20164;-41
2023/07/15 09:22:19;;;;;;;0.13;0.10;;;;;;;13.96;100.00;98083.44;4957777;28;20051;-41
2023/07/15 09:24:46;;;;;;;0.30;0.10;;;;;;;13.98;100.00;98072.66;4963746;28;20043;-42
2023/07/15 09:27:13;;;;;;;0.22;0.10;;;;;;;14.04;100.00;98081.28;4968945;28;20047;-45
2023/07/15 09:29:40;;;;;;;0.10;0.05;;;;;;;14.08;100.00;98068.09;4960517;28;20062;-42
2023/07/15 09:32:07;;;;;;;0.40;0.10;;;;;;;14.11;100.00;98072.00;4963132;28;20047;-42
2023/07/15 09:34:49;;;;;;;0.32;0.10;;;;;;;14.14;100.00;98071.91;4966558;28;20089;-42
2023/07/15 09:37:30;;;;;;;3.83;0.25;;;;;;;14.18;100.00;98074.59;4961491;28;20452;-42
2023/07/15 09:40:04;;;;;;;0.20;0.20;;;;;;;14.19;100.00;98076.19;4960068;28;20055;-44
2023/07/15 09:42:49;;;;;;;2.83;0.35;;;;;;;14.25;100.00;98077.22;4958033;28;20051;-41
2023/07/15 09:45:38;;;;;;;0.25;0.13;;;;;;;14.32;100.00;98068.72;4959643;28;20101;-41
2023/07/15 09:48:13;;;;;;;1.08;0.28;;;;;;;14.39;100.00;98068.56;4961745;28;20066;-42
2023/07/15 09:50:44;;;;;;;1.30;0.10;;;;;;;14.47;100.00;98075.50;4963148;28;20039;-42
2023/07/15 09:53:11;;;;;;;0.75;0.10;;;;;;;14.53;100.00;98068.97;4963944;28;20043;-41
2023/07/15 09:55:38;;;;;;;0.63;0.40;;;;;;;14.56;100.00;98073.66;4967075;28;20417;-42
2023/07/15 09:58:23;;;;;;;2.92;0.10;;;;;;;14.62;100.00;98068.34;4965324;28;20077;-41
2023/07/15 10:01:06;;;;;;;0.13;0.10;;;;;;;14.66;100.00;98071.84;4956301;28;20051;-42
2023/07/15 10:03:51;;;;;;;0.35;0.13;;;;;;;14.74;100.00;98067.66;4953262;28;20401;-41
2023/07/15 10:06:18;;;;;;;0.65;0.10;;;;;;;14.89;100.00;98056.91;4968720;28;20045;-42
2023/07/15 10:08:47;;;;;;;0.10;0.05;;;;;;;14.97;100.00;98075.00;4962001;28;20039;-41
2023/07/15 10:11:15;;;;;;;0.20;0.10;;;;;;;14.99;100.00;98066.97;4962772;28;20077;-42
2023/07/15 10:13:42;;;;;;;0.10;0.10;;;;;;;15.03;100.00;98062.88;4989364;28;20097;-41
2023/07/15 10:16:09;;;;;;;1.40;0.20;;;;;;;15.04;100.00;98061.66;4982087;28;20050;-41
2023/07/15 10:18:36;;;;;;;0.75;0.20;;;;;;;15.06;100.00;98066.81;4975980;28;20481;-42
2023/07/15 10:21:05;;;;;;;0.03;0.00;;;;;;;15.05;100.00;98070.78;4977336;28;20039;-42
2023/07/15 10:23:33;;;;;;;0.70;0.20;;;;;;;15.04;100.00;98064.44;4981992;28;20050;-42
2023/07/15 10:26:00;;;;;;;0.20;0.20;;;;;;;15.08;100.00;98069.91;4979637;28;20047;-43
2023/07/15 10:28:39;;;;;;;0.10;0.10;;;;;;;15.16;100.00;98072.06;4978156;28;20157;-41
2023/07/15 10:31:11;;;;;;;0.38;0.10;;;;;;;15.23;100.00;98065.50;4976298;28;20039;-41
2023/07/15 10:33:56;;;;;;;0.20;0.10;;;;;;;15.31;100.00;98054.94;4981018;28;20223;-41
2023/07/15 10:36:47;;;;;;;0.40;0.13;;;;;;;15.32;100.00;98062.09;4982819;28;20060;-42
2023/07/15 10:39:16;;;;;;;1.35;0.40;;;;;;;15.22;100.00;98053.56;4974702;28;20066;-41
2023/07/15 10:41:48;;;;;;;1.20;0.30;;;;;;;15.20;100.00;98061.59;4982219;28;20038;-42
2023/07/15 10:44:15;;;;;;;;;;;;;;;15.18;100.00;98063.25;4974827;28;20109;-42
2023/07/15 10:47:07;;;;;;;0.45;0.20;;;;;;;15.21;100.00;98063.19;4989650;28;19982;-42
2023/07/15 10:49:35;;;;;;;3.00;0.40;;;;;;;15.24;100.00;98048.38;4985295;28;20046;-41
2023/07/15 10:52:05;;;;;;;0.75;0.20;;;;;;;15.26;100.00;98053.47;4986631;28;20061;-42
2023/07/15 10:54:39;;;;;;;2.17;0.20;;;;;;;15.34;100.00;98048.47;4991923;28;20101;-42
2023/07/15 10:57:16;;;;;;;0.68;0.10;;;;;;;15.36;100.00;98040.44;4990317;28;20065;-41
2023/07/15 10:59:45;;;;;;;1.38;0.32;;;;;;;15.33;100.00;98047.69;4988375;28;20050;-42
2023/07/15 11:02:13;;;;;;;0.68;0.10;;;;;;;15.37;100.00;98048.38;5002950;28;20129;-42
2023/07/15 11:04:40;;;;;;;1.35;0.45;;;;;;;15.41;100.00;98059.44;4998600;28;20105;-43
2023/07/15 11:07:11;;;;;;;0.57;0.20;;;;;;;15.44;100.00;98052.97;5008025;28;20038;-42
2023/07/15 11:09:41;;;;;;;1.00;0.20;;;;;;;15.47;100.00;98052.13;5007833;28;20045;-43
2023/07/15 11:12:10;;;;;;;0.10;0.05;;;;;;;15.52;100.00;98054.34;5003082;28;20050;-44
2023/07/15 11:14:42;;;;;;;0.88;0.30;;;;;;;15.53;100.00;98056.72;5009104;28;20140;-42
2023/07/15 11:17:14;;;;;;;2.13;0.20;;;;;;;15.55;100.00;98070.19;4983171;28;20050;-45
2023/07/15 11:19:45;;;;;;;0.63;0.22;;;;;;;15.55;100.00;98067.41;4975132;28;20052;-46
2023/07/15 11:22:12;;;;;;;0.25;0.10;;;;;;;15.50;100.00;98073.53;4974270;28;20104;-43
2023/07/15 11:24:39;;;;;;;1.30;0.28;;;;;;;15.46;100.00;98081.22;4974878;28;20590;-42
2023/07/15 11:27:06;;;;;;;0.73;0.40;;;;;;;15.39;100.00;98067.44;4970944;28;20057;-46
2023/07/15 11:29:33;;;;;;;0.10;0.10;;;;;;;15.38;100.00;98063.13;4956418;28;20050;-45
2023/07/15 11:32:01;;;;;;;1.50;0.22;;;;;;;15.44;100.00;98061.31;4976109;28;20046;-43
2023/07/15 11:34:29;;;;;;;0.32;0.28;;;;;;;15.53;100.00;98051.13;4974671;28;20152;-43